KBMT

Beaumont Municipal Airport

Beaumont, Texas, USA
METAR KBMT 110315Z AUTO 00000KT 10SM CLR 06/03 A3041 RMK AO2 T00630027
Observed Flight Rules
Dec-11 @ 03:15 UTC (28 minutes ago) Visual Flight Rules
Visibility Clouds
10 miles
  • Clear skies
Temperatures Readings
Current 6°C / 43°F
Dewpoint 3°C / 37°F
Humidity 81%
Altimeter 30.41" Hg
Pressure 1030 hPa
Elevation 10
METAR KBMT 110315Z AUTO 00000KT 10SM CLR 06/03 A3041 RMK AO2 T00630027
Observed Flight Rules
Dec-11 @ 03:15 UTC
(28 minutes ago)
VFR
Clouds
  • Clear skies
Temperature Dewpoint
6°C / 43°F 3°C / 37°F
Humidity Altimeter Pressure
81% 30.41" Hg 1030 hPa